Time;durP1;ratioP1;P1;durP2;ratioP2;P2;SDS_P1;SDS_P2;PMS_P1;PMS_P2;Temp;Humidity;BMP_temperature;BMP_pressure;BME280_temperature;BME280_humidity;BME280_pressure;Samples;Min_cycle;Max_cycle;Signal;HPM_P1;HPM_P2
2021/07/18 00:02:24;;;;;;;28.67;21.03;;;19.80;99.90;;;;;;5136734;27;20213;-66
2021/07/18 00:05:12;;;;;;;35.77;21.03;;;19.70;99.90;;;;;;5134230;27;20220;-66
2021/07/18 00:08:04;;;;;;;30.40;21.93;;;19.80;99.90;;;;;;5142058;27;20280;-65
2021/07/18 00:10:52;;;;;;;28.67;20.50;;;19.80;99.90;;;;;;5150853;27;20652;-66
2021/07/18 00:13:40;;;;;;;32.17;20.80;;;19.80;99.90;;;;;;5140987;27;20557;-66
2021/07/18 00:16:29;;;;;;;35.53;21.03;;;19.80;99.90;;;;;;5145832;27;20213;-66
2021/07/18 00:19:16;;;;;;;27.30;19.97;;;19.70;99.90;;;;;;5139102;27;20232;-66
2021/07/18 00:22:04;;;;;;;30.10;21.30;;;19.70;99.90;;;;;;5124873;27;20209;-66
2021/07/18 00:24:52;;;;;;;31.10;21.07;;;19.70;99.90;;;;;;5130139;27;20190;-66
2021/07/18 00:27:39;;;;;;;31.50;21.97;;;19.60;99.90;;;;;;5135387;27;20266;-66
2021/07/18 00:30:27;;;;;;;37.97;22.03;;;19.60;99.90;;;;;;5134432;27;20252;-66
2021/07/18 00:33:16;;;;;;;32.70;22.90;;;19.60;99.90;;;;;;5150713;27;20217;-66
2021/07/18 00:36:04;;;;;;;38.97;23.47;;;19.60;99.90;;;;;;5150927;27;20198;-66
2021/07/18 00:38:51;;;;;;;33.63;23.77;;;19.60;99.90;;;;;;5133777;27;20190;-66
2021/07/18 00:41:39;;;;;;;35.73;22.40;;;19.70;99.90;;;;;;5143355;27;20224;-66
2021/07/18 00:44:26;;;;;;;34.90;23.93;;;19.70;99.90;;;;;;5148231;27;20300;-66
2021/07/18 00:47:14;;;;;;;38.10;24.20;;;19.70;99.90;;;;;;5150780;27;20217;-66
2021/07/18 00:50:06;;;;;;;39.07;24.17;;;19.70;99.90;;;;;;5151250;27;20205;-66
2021/07/18 00:52:53;;;;;;;39.60;23.40;;;19.70;99.90;;;;;;5151508;27;20989;-66
2021/07/18 00:55:44;;;;;;;38.83;24.20;;;19.70;99.90;;;;;;5134870;27;20279;-65
2021/07/18 00:58:32;;;;;;;36.33;24.07;;;19.60;99.90;;;;;;5124769;27;20213;-66
2021/07/18 01:01:19;;;;;;;41.03;23.77;;;19.60;99.90;;;;;;5139066;27;20201;-66
2021/07/18 01:04:07;;;;;;;35.87;22.27;;;19.50;99.90;;;;;;5151334;27;20209;-66
2021/07/18 01:06:55;;;;;;;44.20;23.30;;;19.50;99.90;;;;;;5134053;27;20192;-65
2021/07/18 01:09:43;;;;;;;32.53;21.97;;;19.50;99.90;;;;;;5125095;27;20197;-65
2021/07/18 01:12:31;;;;;;;34.13;23.17;;;19.40;99.90;;;;;;5141313;27;20202;-66
2021/07/18 01:15:18;;;;;;;38.90;24.07;;;19.40;99.90;;;;;;5132262;27;20197;-66
2021/07/18 01:18:05;;;;;;;38.93;23.47;;;19.40;99.90;;;;;;5141240;27;20329;-66
2021/07/18 01:20:53;;;;;;;36.40;24.37;;;19.40;99.90;;;;;;5124393;27;20236;-65
2021/07/18 01:23:42;;;;;;;35.53;23.07;;;19.40;99.90;;;;;;5133818;27;20317;-66
2021/07/18 01:26:29;;;;;;;37.13;23.70;;;19.40;99.90;;;;;;5131004;27;20285;-65
2021/07/18 01:29:17;;;;;;;36.17;23.57;;;19.40;99.90;;;;;;5146378;27;20211;-66
2021/07/18 01:32:05;;;;;;;35.67;23.17;;;19.50;99.90;;;;;;5131628;27;20197;-66
2021/07/18 01:34:53;;;;;;;34.20;23.00;;;19.50;99.90;;;;;;5134721;27;20202;-66
2021/07/18 01:37:41;;;;;;;36.63;23.40;;;19.50;99.90;;;;;;5150660;27;20221;-65
2021/07/18 01:40:30;;;;;;;36.70;23.80;;;19.40;99.90;;;;;;5138322;27;20205;-66
2021/07/18 01:43:17;;;;;;;37.00;23.47;;;19.40;99.90;;;;;;5152226;27;20234;-66
2021/07/18 01:46:05;;;;;;;38.33;23.60;;;19.40;99.90;;;;;;5141471;27;20567;-65
2021/07/18 01:48:53;;;;;;;34.33;22.93;;;19.30;99.90;;;;;;5125592;27;20216;-66
2021/07/18 01:51:40;;;;;;;41.97;23.63;;;19.40;99.90;;;;;;5132170;27;20241;-66
2021/07/18 01:54:28;;;;;;;40.23;24.57;;;19.40;99.90;;;;;;5131348;27;20584;-66
2021/07/18 01:57:18;;;;;;;42.40;23.57;;;19.40;99.90;;;;;;5137926;27;20781;-66
2021/07/18 02:00:06;;;;;;;35.60;22.40;;;19.50;99.90;;;;;;5131675;27;20197;-65
2021/07/18 02:02:54;;;;;;;40.27;22.13;;;19.50;99.90;;;;;;5132181;27;20213;-66
2021/07/18 02:05:41;;;;;;;35.03;23.60;;;19.60;99.90;;;;;;5139994;27;20218;-66
2021/07/18 02:08:29;;;;;;;39.57;22.87;;;19.60;99.90;;;;;;5128469;27;20220;-66
2021/07/18 02:11:17;;;;;;;35.27;23.00;;;19.60;99.90;;;;;;5143273;27;20269;-65
2021/07/18 02:14:06;;;;;;;33.67;22.03;;;19.70;99.90;;;;;;5149132;27;20190;-65
2021/07/18 02:16:54;;;;;;;32.10;21.03;;;19.60;99.90;;;;;;5139751;27;20209;-66
2021/07/18 02:19:41;;;;;;;30.93;21.47;;;19.60;99.90;;;;;;5130597;27;20230;-66
2021/07/18 02:22:43;;;;;;;39.67;22.60;;;19.60;99.90;;;;;;5123356;27;20628;-66
2021/07/18 02:25:31;;;;;;;34.00;20.93;;;19.60;99.90;;;;;;5130269;27;20201;-66
2021/07/18 02:28:19;;;;;;;40.87;22.73;;;19.50;99.90;;;;;;5132328;27;20607;-65
2021/07/18 02:31:09;;;;;;;35.57;22.30;;;19.50;99.90;;;;;;5129769;27;20201;-66
2021/07/18 02:33:56;;;;;;;37.77;21.43;;;19.40;99.90;;;;;;5140903;27;20229;-65
2021/07/18 02:36:44;;;;;;;42.70;22.70;;;19.50;99.90;;;;;;5129986;27;20205;-66
2021/07/18 02:39:32;;;;;;;34.83;21.43;;;19.50;99.90;;;;;;5139983;27;20208;-66
2021/07/18 02:42:19;;;;;;;34.73;21.30;;;19.50;99.90;;;;;;5122483;27;20197;-66
2021/07/18 02:45:09;;;;;;;34.20;21.93;;;19.40;99.90;;;;;;5131018;27;20652;-66
2021/07/18 02:47:58;;;;;;;36.53;22.60;;;19.40;99.90;;;;;;5126933;27;20204;-65
2021/07/18 02:50:45;;;;;;;40.07;23.13;;;19.40;99.90;;;;;;5147363;27;20219;-65
2021/07/18 02:53:33;;;;;;;41.80;22.47;;;19.40;99.90;;;;;;5131282;27;20205;-66
2021/07/18 02:56:20;;;;;;;39.87;23.90;;;19.40;99.90;;;;;;5131920;27;20209;-66
2021/07/18 02:59:08;;;;;;;38.43;22.73;;;19.40;99.90;;;;;;5130276;27;20217;-66
2021/07/18 03:02:20;;;;;;;45.43;24.37;;;19.40;99.90;;;;;;5129962;28;20214;-66
2021/07/18 03:05:11;;;;;;;36.73;22.80;;;19.30;99.90;;;;;;5131331;27;20581;-66
2021/07/18 03:07:59;;;;;;;44.53;23.50;;;19.30;99.90;;;;;;5130362;27;20284;-65
2021/07/18 03:10:49;;;;;;;36.43;23.37;;;19.30;99.90;;;;;;5129222;27;20205;-66
2021/07/18 03:13:37;;;;;;;34.20;23.50;;;19.40;99.90;;;;;;5130971;27;20198;-66
2021/07/18 03:16:24;;;;;;;34.50;22.70;;;19.30;99.90;;;;;;5130072;27;20613;-66
2021/07/18 03:19:21;;;;;;;33.83;23.13;;;19.30;99.90;;;;;;4773474;27;22068;-66
2021/07/18 03:22:10;;;;;;;39.00;23.87;;;19.30;99.90;;;;;;5108983;28;20199;-66
2021/07/18 03:24:58;;;;;;;36.80;24.90;;;19.30;99.90;;;;;;5109814;28;20206;-66
2021/07/18 03:27:46;;;;;;;39.93;24.73;;;19.30;99.90;;;;;;5109257;28;20202;-66
2021/07/18 03:30:33;;;;;;;40.10;25.20;;;19.30;99.90;;;;;;5121653;28;20197;-66
2021/07/18 03:33:21;;;;;;;37.63;23.97;;;19.30;99.90;;;;;;5114116;28;20366;-66
2021/07/18 03:36:09;;;;;;;40.57;24.20;;;19.40;99.90;;;;;;5119927;28;20699;-65
2021/07/18 03:38:58;;;;;;;40.83;24.13;;;19.40;99.90;;;;;;5128679;28;20217;-66
2021/07/18 03:41:46;;;;;;;34.80;23.33;;;19.40;99.90;;;;;;5118115;28;20202;-66
2021/07/18 03:44:34;;;;;;;37.43;24.37;;;19.40;99.90;;;;;;5120786;28;20199;-66
2021/07/18 03:47:21;;;;;;;38.30;24.80;;;19.40;99.90;;;;;;5105280;28;20221;-66
2021/07/18 03:50:11;;;;;;;41.13;24.57;;;19.50;99.90;;;;;;5126743;28;20251;-65
2021/07/18 03:52:58;;;;;;;40.73;24.17;;;19.50;99.90;;;;;;5128064;28;20198;-66
2021/07/18 03:55:47;;;;;;;37.13;23.43;;;19.60;99.90;;;;;;5129228;27;20221;-65
2021/07/18 03:58:35;;;;;;;35.97;22.13;;;19.60;99.90;;;;;;5106937;27;20219;-65
2021/07/18 04:01:22;;;;;;;31.23;22.20;;;19.60;99.90;;;;;;5123813;27;20650;-66
2021/07/18 04:04:10;;;;;;;37.83;23.30;;;19.60;99.90;;;;;;5130748;27;20213;-66
2021/07/18 04:06:57;;;;;;;42.03;24.73;;;19.60;99.90;;;;;;5113710;27;20570;-66
2021/07/18 04:09:45;;;;;;;42.30;24.90;;;19.60;99.90;;;;;;5125344;27;20789;-65
2021/07/18 04:12:34;;;;;;;45.27;26.30;;;19.60;99.90;;;;;;5115857;27;20199;-66
2021/07/18 04:15:21;;;;;;;35.87;25.30;;;19.60;99.90;;;;;;5112869;27;20292;-66
2021/07/18 04:18:09;;;;;;;37.53;25.30;;;19.70;99.90;;;;;;5119596;27;20222;-66
2021/07/18 04:20:57;;;;;;;39.33;25.00;;;19.70;99.90;;;;;;5143164;27;20368;-65
2021/07/18 04:23:45;;;;;;;36.13;24.27;;;19.70;99.90;;;;;;5148565;27;20201;-65
2021/07/18 04:26:32;;;;;;;38.47;24.50;;;19.70;99.90;;;;;;5133602;27;20198;-65
2021/07/18 04:29:21;;;;;;;36.73;25.20;;;19.60;99.90;;;;;;5133578;27;20202;-65
2021/07/18 04:32:09;;;;;;;38.77;25.23;;;19.60;99.90;;;;;;5134696;27;20213;-66
2021/07/18 04:34:57;;;;;;;44.83;27.13;;;19.50;99.90;;;;;;5151760;27;20246;-66
2021/07/18 04:37:45;;;;;;;45.70;28.23;;;19.40;99.90;;;;;;5126145;27;20664;-66
2021/07/18 04:40:32;;;;;;;53.20;30.00;;;19.40;99.90;;;;;;5126926;27;20208;-66
2021/07/18 04:43:20;;;;;;;46.23;29.50;;;19.30;99.90;;;;;;5151550;27;20212;-66
2021/07/18 04:46:09;;;;;;;49.40;28.47;;;19.40;99.90;;;;;;5139527;27;20587;-66
2021/07/18 04:48:56;;;;;;;47.53;29.03;;;19.50;99.90;;;;;;5134463;27;20671;-66
2021/07/18 04:51:44;;;;;;;44.00;28.63;;;19.50;99.90;;;;;;5125634;27;20190;-66
2021/07/18 04:54:32;;;;;;;45.87;29.30;;;19.60;99.90;;;;;;5150201;27;20198;-66
2021/07/18 04:57:21;;;;;;;44.33;28.90;;;19.70;99.90;;;;;;5126645;27;20202;-66
2021/07/18 05:00:10;;;;;;;45.10;29.07;;;19.70;99.90;;;;;;5140824;27;20326;-65
2021/07/18 05:02:59;;;;;;;46.40;30.87;;;19.80;99.90;;;;;;5151249;27;20219;-66
2021/07/18 05:05:46;;;;;;;45.00;30.57;;;20.00;99.90;;;;;;5149748;27;20704;-66
2021/07/18 05:08:34;;;;;;;45.37;27.27;;;20.10;99.90;;;;;;5137516;27;20194;-65
2021/07/18 05:11:21;;;;;;;44.23;28.63;;;20.10;99.90;;;;;;5144657;27;20207;-66
2021/07/18 05:14:09;;;;;;;42.63;27.67;;;20.10;99.90;;;;;;5134723;27;20209;-66
2021/07/18 05:16:57;;;;;;;42.43;26.33;;;20.20;99.90;;;;;;5136343;27;20186;-66
2021/07/18 05:19:45;;;;;;;39.83;26.30;;;20.30;99.90;;;;;;5141941;27;20229;-66
2021/07/18 05:22:33;;;;;;;42.07;27.63;;;20.30;99.90;;;;;;5133870;27;20199;-66
2021/07/18 05:25:21;;;;;;;39.53;25.53;;;20.30;99.90;;;;;;5151861;27;20202;-65
2021/07/18 05:28:08;;;;;;;36.93;24.97;;;20.30;99.90;;;;;;5125543;27;20567;-66
2021/07/18 05:30:56;;;;;;;37.20;25.87;;;20.40;99.90;;;;;;5124585;27;20206;-66
2021/07/18 05:33:43;;;;;;;39.17;25.57;;;20.50;99.90;;;;;;5149514;27;20250;-66
2021/07/18 05:36:32;;;;;;;41.30;24.57;;;20.60;99.90;;;;;;5123504;27;20194;-66
2021/07/18 05:39:20;;;;;;;33.83;24.20;;;20.80;99.90;;;;;;5140063;27;20562;-66
2021/07/18 05:42:07;;;;;;;42.47;24.97;;;20.80;99.90;;;;;;5122678;27;20206;-66
2021/07/18 05:44:55;;;;;;;37.97;25.97;;;20.90;99.90;;;;;;5139738;27;20675;-66
2021/07/18 05:47:42;;;;;;;41.43;25.47;;;21.00;99.90;;;;;;5149542;27;20229;-66
2021/07/18 05:50:30;;;;;;;42.07;24.17;;;21.10;99.90;;;;;;5146293;27;20212;-66
2021/07/18 05:53:19;;;;;;;37.10;24.53;;;21.10;99.90;;;;;;5133148;27;20210;-66
2021/07/18 05:56:06;;;;;;;35.97;25.03;;;21.10;99.90;;;;;;5139472;27;20201;-66
2021/07/18 05:58:54;;;;;;;36.30;23.87;;;21.20;99.90;;;;;;5150161;27;20213;-66
2021/07/18 06:01:42;;;;;;;35.87;24.40;;;21.30;99.90;;;;;;5136660;27;20201;-66
2021/07/18 06:04:29;;;;;;;38.27;25.10;;;21.40;99.90;;;;;;5130586;27;20198;-66
2021/07/18 06:07:20;;;;;;;38.20;24.37;;;21.50;99.90;;;;;;5134671;27;20198;-66
2021/07/18 06:10:10;;;;;;;40.10;23.83;;;21.60;99.90;;;;;;5150963;27;20285;-66
2021/07/18 06:12:58;;;;;;;42.47;23.93;;;21.80;99.90;;;;;;5124314;27;20676;-66
2021/07/18 06:15:45;;;;;;;33.13;23.10;;;21.70;99.90;;;;;;5151330;27;20198;-66
2021/07/18 06:18:33;;;;;;;35.43;22.77;;;21.80;99.90;;;;;;5121059;27;20225;-66
2021/07/18 06:21:20;;;;;;;34.30;22.67;;;21.80;99.90;;;;;;5149961;27;20217;-66
2021/07/18 06:24:08;;;;;;;35.70;21.47;;;21.80;99.90;;;;;;5130822;27;20211;-66
2021/07/18 06:26:57;;;;;;;37.67;20.60;;;21.80;99.90;;;;;;5125398;27;20198;-66
2021/07/18 06:29:45;;;;;;;35.67;19.97;;;21.80;99.90;;;;;;5146023;27;20260;-66
2021/07/18 06:32:33;;;;;;;34.10;20.77;;;21.90;99.90;;;;;;5133861;27;20210;-66
2021/07/18 06:35:21;;;;;;;33.80;19.33;;;21.90;99.90;;;;;;5131064;27;20205;-66
2021/07/18 06:38:08;;;;;;;29.97;19.90;;;22.00;99.90;;;;;;5144813;27;20202;-66
2021/07/18 06:40:56;;;;;;;31.83;18.87;;;22.20;99.90;;;;;;5133052;27;20621;-65
2021/07/18 06:43:45;;;;;;;29.47;18.80;;;22.10;99.90;;;;;;5150361;27;20563;-66
2021/07/18 06:46:32;;;;;;;31.43;18.50;;;22.10;99.90;;;;;;5119218;27;20739;-66
2021/07/18 06:49:20;;;;;;;30.00;18.07;;;22.10;99.90;;;;;;5130473;27;20202;-66
2021/07/18 06:52:09;;;;;;;32.97;17.40;;;22.00;99.90;;;;;;5128811;27;20202;-66
2021/07/18 06:54:58;;;;;;;29.47;17.37;;;21.90;99.90;;;;;;5123358;27;20206;-66
2021/07/18 06:57:50;;;;;;;25.63;17.13;;;21.90;99.90;;;;;;5138246;27;20201;-66
2021/07/18 07:00:48;;;;;;;26.60;17.70;;;21.90;99.90;;;;;;5123579;27;20195;-66
2021/07/18 07:03:37;;;;;;;25.80;16.63;;;21.80;99.90;;;;;;5114324;27;20205;-66
2021/07/18 07:06:25;;;;;;;26.03;17.50;;;21.80;99.90;;;;;;5148022;27;20190;-66
2021/07/18 07:09:13;;;;;;;22.57;16.07;;;21.70;99.90;;;;;;5147834;27;20198;-66
2021/07/18 07:12:01;;;;;;;24.33;16.90;;;21.90;99.90;;;;;;5138691;27;20198;-66
2021/07/18 07:14:48;;;;;;;22.53;14.70;;;22.00;99.90;;;;;;5145742;27;20278;-66
2021/07/18 07:17:38;;;;;;;22.63;15.10;;;22.00;99.90;;;;;;5147839;27;20213;-66
2021/07/18 07:20:28;;;;;;;22.37;14.47;;;22.10;99.90;;;;;;5133322;27;20585;-66
2021/07/18 07:23:16;;;;;;;21.30;13.97;;;22.20;99.90;;;;;;5138509;27;20205;-66
2021/07/18 07:26:04;;;;;;;23.13;15.23;;;22.30;99.90;;;;;;5145575;27;20290;-66
2021/07/18 07:28:52;;;;;;;21.47;14.93;;;22.30;99.90;;;;;;5130073;27;20198;-66
2021/07/18 07:31:39;;;;;;;23.47;13.93;;;22.40;99.90;;;;;;5141536;27;20195;-66
2021/07/18 07:34:28;;;;;;;28.27;14.63;;;22.50;99.90;;;;;;5127198;27;20186;-66
2021/07/18 07:37:16;;;;;;;26.67;14.20;;;22.50;99.90;;;;;;5149515;27;20205;-65
2021/07/18 07:40:05;;;;;;;23.83;14.73;;;22.50;99.90;;;;;;5149294;27;20271;-66
2021/07/18 07:42:53;;;;;;;27.80;15.60;;;22.60;99.90;;;;;;5140484;27;20195;-66
2021/07/18 07:45:40;;;;;;;27.37;15.67;;;22.60;99.90;;;;;;5141303;27;20269;-66
2021/07/18 07:48:28;;;;;;;21.80;14.77;;;22.70;99.90;;;;;;5143116;27;20209;-66
2021/07/18 07:51:17;;;;;;;22.13;14.60;;;22.70;99.90;;;;;;5133085;27;20345;-66
2021/07/18 07:54:05;;;;;;;22.10;13.23;;;22.60;99.90;;;;;;5153421;27;20263;-66
2021/07/18 07:56:52;;;;;;;22.73;13.60;;;22.60;99.90;;;;;;5152974;27;20198;-66
2021/07/18 07:59:40;;;;;;;17.37;13.17;;;22.60;99.90;;;;;;5133940;27;20214;-66
2021/07/18 08:02:27;;;;;;;19.23;12.20;;;22.60;99.90;;;;;;5136433;27;20201;-65
2021/07/18 08:05:16;;;;;;;22.43;12.83;;;22.70;99.90;;;;;;5134265;27;20203;-66
2021/07/18 08:08:05;;;;;;;22.07;12.00;;;22.70;99.90;;;;;;5133326;27;20198;-66
2021/07/18 08:10:53;;;;;;;15.43;10.47;;;22.80;99.90;;;;;;5134834;27;20253;-66
2021/07/18 08:13:41;;;;;;;17.97;10.67;;;22.70;99.90;;;;;;5135208;27;20199;-66
2021/07/18 08:16:28;;;;;;;21.40;11.33;;;22.70;99.90;;;;;;5152700;27;20330;-66
2021/07/18 08:19:16;;;;;;;17.37;10.43;;;23.00;99.90;;;;;;5141018;27;20211;-66
2021/07/18 08:22:04;;;;;;;15.17;10.23;;;23.30;99.90;;;;;;5151954;27;20197;-66
2021/07/18 08:24:53;;;;;;;14.07;10.83;;;23.80;99.90;;;;;;5141075;27;20580;-67
2021/07/18 08:27:40;;;;;;;17.53;11.43;;;24.20;99.90;;;;;;5134917;27;20201;-66
2021/07/18 08:30:28;;;;;;;18.60;11.67;;;24.50;99.90;;;;;;5138463;27;20197;-66
2021/07/18 08:33:16;;;;;;;21.83;12.65;;;24.70;99.90;;;;;;5142641;27;20205;-66
2021/07/18 08:36:03;;;;;;;21.30;14.25;;;24.80;99.90;;;;;;5134510;27;20198;-66
2021/07/18 08:38:51;;;;;;;21.75;14.63;;;24.70;99.90;;;;;;5134929;27;20197;-66
2021/07/18 08:41:43;;;;;;;27.65;16.17;;;24.60;99.90;;;;;;5132738;27;20205;-66
2021/07/18 08:44:31;;;;;;;33.78;17.52;;;24.30;99.90;;;;;;5130250;27;20206;-66
2021/07/18 08:47:18;;;;;;;27.63;17.40;;;24.00;99.90;;;;;;5152655;27;20855;-66
2021/07/18 08:50:07;;;;;;;26.58;16.80;;;23.90;99.90;;;;;;5128939;27;20198;-66
2021/07/18 08:52:55;;;;;;;28.77;18.60;;;23.60;99.90;;;;;;5132700;27;20271;-66
2021/07/18 08:55:43;;;;;;;31.23;18.80;;;23.50;99.90;;;;;;5131052;27;20202;-66
2021/07/18 08:58:32;;;;;;;30.97;19.37;;;23.60;99.90;;;;;;5128199;27;20625;-66
2021/07/18 09:01:19;;;;;;;30.73;19.90;;;24.00;99.90;;;;;;5140220;27;20193;-66
2021/07/18 09:04:07;;;;;;;33.03;19.85;;;24.40;99.90;;;;;;5131059;27;20657;-66
2021/07/18 09:06:55;;;;;;;33.72;20.25;;;24.90;99.90;;;;;;5128154;27;20661;-66
2021/07/18 09:09:42;;;;;;;37.42;20.63;;;25.60;99.90;;;;;;5132367;27;20194;-66
2021/07/18 09:12:30;;;;;;;30.90;20.27;;;25.80;99.90;;;;;;5126702;27;20191;-66
2021/07/18 09:15:19;;;;;;;38.95;20.95;;;26.00;99.90;;;;;;5133012;27;20621;-67
2021/07/18 09:18:10;;;;;;;39.10;21.23;;;26.30;99.90;;;;;;5123213;27;20194;-66
2021/07/18 09:20:58;;;;;;;34.28;22.30;;;26.50;99.90;;;;;;5132490;27;20223;-67
2021/07/18 09:23:46;;;;;;;36.92;22.75;;;26.90;99.90;;;;;;5137590;27;20281;-66
2021/07/18 09:26:34;;;;;;;39.05;22.67;;;26.60;99.90;;;;;;5134803;27;20978;-67
2021/07/18 09:29:25;;;;;;;36.03;22.38;;;26.70;99.90;;;;;;5137327;27;20563;-67
2021/07/18 09:32:16;;;;;;;39.45;24.23;;;26.80;99.90;;;;;;5129109;27;20201;-67
2021/07/18 09:35:05;;;;;;;34.83;21.83;;;27.20;99.90;;;;;;5151066;27;20194;-68
2021/07/18 09:37:53;;;;;;;37.00;22.83;;;27.40;99.90;;;;;;5151520;27;20194;-67
2021/07/18 09:40:42;;;;;;;32.42;20.23;;;27.80;99.90;;;;;;5133582;27;20206;-67
2021/07/18 09:43:29;;;;;;;30.70;20.20;;;28.30;99.90;;;;;;5130303;27;20236;-67
2021/07/18 09:46:17;;;;;;;33.33;20.95;;;28.20;99.90;;;;;;5135272;27;20680;-67
2021/07/18 09:49:06;;;;;;;32.40;20.55;;;28.10;99.90;;;;;;5133602;27;20195;-67
2021/07/18 09:51:54;;;;;;;30.45;18.48;;;27.60;99.90;;;;;;5125437;27;20208;-67
2021/07/18 09:54:41;;;;;;;26.30;17.38;;;27.60;99.90;;;;;;5135243;27;20194;-67
2021/07/18 09:57:37;;;;;;;27.35;17.55;;;27.60;99.90;;;;;;5132905;27;20292;-67
2021/07/18 10:00:37;;;;;;;28.70;18.23;;;27.70;99.90;;;;;;5133801;27;20225;-66
2021/07/18 10:03:27;;;;;;;26.33;18.33;;;27.80;99.90;;;;;;5126431;27;20199;-67
2021/07/18 10:06:16;;;;;;;28.98;18.45;;;28.10;99.90;;;;;;5149400;27;20647;-67
2021/07/18 10:09:10;;;;;;;26.67;17.70;;;28.60;99.90;;;;;;5146004;27;20202;-66
2021/07/18 10:11:58;;;;;;;23.65;16.60;;;28.80;99.90;;;;;;5146661;27;20193;-67
2021/07/18 10:14:46;;;;;;;25.38;16.13;;;28.60;99.90;;;;;;5150718;27;20194;-67
2021/07/18 10:17:33;;;;;;;28.45;17.70;;;28.30;99.90;;;;;;5149954;27;20401;-67
2021/07/18 10:20:21;;;;;;;28.85;18.02;;;28.40;99.90;;;;;;5150378;27;20229;-67
2021/07/18 10:23:10;;;;;;;29.20;18.80;;;28.20;99.90;;;;;;5129413;27;20202;-67
2021/07/18 10:26:00;;;;;;;30.55;19.80;;;28.30;99.90;;;;;;5122512;27;20653;-67
2021/07/18 10:28:47;;;;;;;32.33;23.35;;;28.50;99.90;;;;;;5138860;27;20201;-67
2021/07/18 10:31:37;;;;;;;30.70;22.20;;;29.10;99.90;;;;;;5130472;27;20485;-67
2021/07/18 10:34:28;;;;;;;33.50;23.25;;;29.50;99.90;;;;;;5131747;27;20276;-68
2021/07/18 10:37:16;;;;;;;30.83;23.00;;;29.40;99.90;;;;;;5130193;27;20658;-67
2021/07/18 10:40:11;;;;;;;35.28;24.65;;;29.60;99.90;;;;;;5139618;27;20210;-67
2021/07/18 10:42:59;;;;;;;35.20;23.88;;;30.10;99.90;;;;;;5138739;27;20197;-67
2021/07/18 10:45:49;;;;;;;42.95;24.85;;;30.10;99.90;;;;;;5144891;27;20221;-67
2021/07/18 10:48:44;;;;;;;36.80;25.30;;;30.00;99.90;;;;;;5135905;27;20247;-67
2021/07/18 10:51:35;;;;;;;32.95;23.50;;;29.80;99.90;;;;;;5139397;27;20330;-67
2021/07/18 10:54:23;;;;;;;33.88;22.65;;;29.80;99.90;;;;;;5124898;27;20194;-67
2021/07/18 10:57:26;;;;;;;32.47;22.80;;;29.80;99.90;;;;;;5139859;27;20205;-67
2021/07/18 11:00:23;;;;;;;33.15;23.15;;;29.80;99.90;;;;;;5130100;27;20216;-67
2021/07/18 11:03:11;;;;;;;33.17;23.33;;;30.30;99.90;;;;;;5133732;27;20189;-66
2021/07/18 11:06:00;;;;;;;31.83;20.98;;;30.20;99.90;;;;;;5153071;27;20205;-67
2021/07/18 11:09:12;;;;;;;27.83;21.48;;;30.10;99.90;;;;;;5130385;27;20203;-66
2021/07/18 11:11:59;;;;;;;30.70;21.13;;;29.90;99.90;;;;;;5153889;27;20580;-67
2021/07/18 11:14:49;;;;;;;27.38;18.85;;;30.10;99.90;;;;;;5153851;27;20193;-67
2021/07/18 11:17:36;;;;;;;28.33;18.67;;;29.90;99.90;;;;;;5127766;27;20780;-67
2021/07/18 11:20:43;;;;;;;26.70;18.33;;;29.80;99.90;;;;;;5135220;27;20721;-67
2021/07/18 11:23:33;;;;;;;27.17;17.05;;;29.30;99.90;;;;;;5153182;27;20202;-67
2021/07/18 11:26:21;;;;;;;24.10;15.25;;;28.80;99.90;;;;;;5127275;27;20199;-67
2021/07/18 11:29:09;;;;;;;18.98;12.07;;;28.50;99.90;;;;;;5151726;27;20209;-67
2021/07/18 11:31:58;;;;;;;18.63;11.05;;;28.00;99.90;;;;;;5134363;27;20216;-67
2021/07/18 11:34:46;;;;;;;18.17;11.25;;;27.70;99.90;;;;;;5135966;27;20231;-67
2021/07/18 11:37:39;;;;;;;15.80;10.15;;;27.80;99.90;;;;;;5127783;27;20626;-67
2021/07/18 11:40:28;;;;;;;14.05;9.85;;;27.90;99.90;;;;;;5143193;27;20221;-67
2021/07/18 11:43:16;;;;;;;17.13;9.45;;;27.70;99.90;;;;;;5150383;27;20198;-67
2021/07/18 11:46:04;;;;;;;21.90;10.60;;;27.70;99.90;;;;;;5135060;27;20549;-67
2021/07/18 11:48:54;;;;;;;16.80;8.90;;;27.80;99.90;;;;;;5133667;27;20199;-67
2021/07/18 11:51:42;;;;;;;13.05;9.30;;;27.70;99.90;;;;;;5140499;27;20222;-67
2021/07/18 11:54:30;;;;;;;13.75;9.23;;;27.60;99.90;;;;;;5152992;27;20966;-67
2021/07/18 11:57:18;;;;;;;16.45;9.70;;;27.40;99.90;;;;;;5153391;27;20280;-66
2021/07/18 12:00:07;;;;;;;19.65;9.80;;;27.10;99.90;;;;;;5154065;27;20218;-67
2021/07/18 12:02:55;;;;;;;16.65;9.25;;;27.00;99.90;;;;;;5152801;27;20198;-66
2021/07/18 12:05:44;;;;;;;14.48;9.48;;;26.80;99.90;;;;;;5134194;27;20660;-66
2021/07/18 12:08:35;;;;;;;19.42;9.70;;;26.80;99.90;;;;;;5134065;27;20206;-67
2021/07/18 12:11:26;;;;;;;14.90;9.43;;;26.60;99.90;;;;;;5151512;27;20198;-67
2021/07/18 12:14:13;;;;;;;16.38;9.15;;;26.60;99.90;;;;;;5128645;27;20207;-67
2021/07/18 12:17:02;;;;;;;17.65;10.50;;;26.70;99.90;;;;;;5134558;27;20251;-67
2021/07/18 12:19:50;;;;;;;17.98;9.27;;;27.00;99.90;;;;;;5129661;27;20223;-67
2021/07/18 12:22:39;;;;;;;18.33;9.95;;;27.20;99.90;;;;;;5151458;27;20274;-67
2021/07/18 12:25:27;;;;;;;17.27;9.45;;;27.40;99.90;;;;;;5155086;27;20194;-67
2021/07/18 12:28:18;;;;;;;15.88;8.52;;;27.50;99.90;;;;;;5151762;27;20206;-67
2021/07/18 12:31:06;;;;;;;16.55;9.30;;;27.60;99.90;;;;;;5154075;27;20201;-67
2021/07/18 12:33:55;;;;;;;14.60;8.60;;;27.60;99.90;;;;;;5146258;27;20302;-66
2021/07/18 12:36:55;;;;;;;14.07;8.63;;;27.60;99.90;;;;;;5129427;27;20199;-66
2021/07/18 12:39:45;;;;;;;13.90;8.20;;;27.40;99.90;;;;;;5146529;27;20195;-67
2021/07/18 12:42:34;;;;;;;14.68;8.48;;;27.60;99.90;;;;;;5133245;27;20197;-67
2021/07/18 12:45:22;;;;;;;15.68;8.43;;;27.70;99.90;;;;;;5133843;27;20221;-67
2021/07/18 12:48:12;;;;;;;17.17;8.30;;;27.80;99.90;;;;;;5143593;27;20190;-66
2021/07/18 12:51:00;;;;;;;17.17;8.25;;;27.90;99.90;;;;;;5134548;27;20341;-67
2021/07/18 12:53:55;;;;;;;15.15;7.90;;;28.10;99.90;;;;;;5144020;27;20194;-67
2021/07/18 12:56:44;;;;;;;15.25;7.68;;;28.30;99.90;;;;;;5145985;27;20192;-67
2021/07/18 12:59:32;;;;;;;14.90;7.50;;;28.40;99.90;;;;;;5145567;27;20254;-67
2021/07/18 13:02:20;;;;;;;22.60;7.68;;;28.70;99.90;;;;;;5139513;27;20679;-66
2021/07/18 13:05:08;;;;;;;13.20;7.20;;;28.90;99.90;;;;;;5141799;27;20254;-67
2021/07/18 13:07:56;;;;;;;13.82;7.60;;;29.00;99.90;;;;;;5147617;27;20195;-67
2021/07/18 13:10:44;;;;;;;13.20;7.40;;;29.00;99.90;;;;;;5151731;27;20318;-67
2021/07/18 13:13:34;;;;;;;13.07;7.22;;;29.20;99.90;;;;;;5152557;27;20566;-67
2021/07/18 13:16:31;;;;;;;8.95;7.03;;;29.60;99.90;;;;;;5152412;27;20194;-67
2021/07/18 13:19:19;;;;;;;13.82;7.38;;;29.50;99.90;;;;;;5151653;27;20197;-67
2021/07/18 13:22:06;;;;;;;14.57;7.72;;;29.30;99.90;;;;;;5151527;27;20308;-67
2021/07/18 13:24:54;;;;;;;13.98;7.78;;;29.20;99.90;;;;;;5143798;27;20210;-67
2021/07/18 13:27:42;;;;;;;18.10;7.90;;;29.10;99.90;;;;;;5131976;27;20195;-67
2021/07/18 13:30:33;;;;;;;11.43;7.50;;;28.70;99.90;;;;;;5147226;27;20354;-67
2021/07/18 13:33:21;;;;;;;14.77;7.85;;;28.30;99.90;;;;;;5150922;27;20657;-67
2021/07/18 13:36:09;;;;;;;15.00;7.80;;;28.40;99.90;;;;;;5150280;27;20198;-67
2021/07/18 13:38:59;;;;;;;12.35;7.68;;;28.30;99.90;;;;;;5124390;27;20195;-67
2021/07/18 13:42:05;;;;;;;11.23;7.20;;;28.30;99.90;;;;;;5145984;27;20217;-66
2021/07/18 13:44:53;;;;;;;9.98;7.07;;;28.30;99.90;;;;;;5124867;27;20197;-67
2021/07/18 13:47:42;;;;;;;13.85;7.45;;;28.30;99.90;;;;;;5139557;27;20213;-67
2021/07/18 13:50:30;;;;;;;10.68;7.28;;;28.40;99.90;;;;;;5139069;27;20195;-67
2021/07/18 13:53:17;;;;;;;11.48;7.13;;;28.40;99.90;;;;;;5131795;27;20199;-66
2021/07/18 13:56:05;;;;;;;13.25;7.05;;;28.40;99.90;;;;;;5108974;28;20647;-66
2021/07/18 13:58:54;;;;;;;13.63;7.35;;;28.40;99.90;;;;;;5110218;28;20199;-67
2021/07/18 14:01:42;;;;;;;15.25;6.93;;;28.50;99.90;;;;;;5110247;28;20753;-67
2021/07/18 14:04:31;;;;;;;13.63;7.35;;;28.80;99.90;;;;;;5110162;28;20620;-66
2021/07/18 14:07:19;;;;;;;12.73;7.50;;;29.30;99.90;;;;;;5109584;28;20203;-67
2021/07/18 14:10:10;;;;;;;9.55;6.93;;;29.90;99.90;;;;;;5109475;28;20199;-66
2021/07/18 14:12:57;;;;;;;12.32;7.47;;;30.20;99.90;;;;;;5110219;28;20210;-66
2021/07/18 14:15:45;;;;;;;13.25;7.30;;;30.10;99.90;;;;;;5109505;28;20286;-67
2021/07/18 14:18:32;;;;;;;13.75;7.20;;;29.80;99.90;;;;;;5110498;28;20572;-67